Time;durP1;ratioP1;P1;durP2;ratioP2;P2;SDS_P1;SDS_P2;PMS_P1;PMS_P2;Temp;Humidity;BMP_temperature;BMP_pressure;BME280_temperature;BME280_humidity;BME280_pressure;Samples;Min_cycle;Max_cycle;Signal;HPM_P1;HPM_P2
2023/04/23 00:00:12;;;;;;;605.78;102.55;;;6.10;80.30;;;;;;6222574;22;20012;-92
2023/04/23 00:02:39;;;;;;;475.83;94.13;;;6.10;80.30;;;;;;6215353;23;20450;-91
2023/04/23 00:05:06;;;;;;;358.50;82.17;;;6.10;80.40;;;;;;6219061;22;20502;-91
2023/04/23 00:07:35;;;;;;;292.27;79.67;;;6.10;80.50;;;;;;6189408;22;20049;-91
2023/04/23 00:10:06;;;;;;;258.53;73.70;;;6.10;80.40;;;;;;6223474;22;20833;-90
2023/04/23 00:12:32;;;;;;;;;;;6.00;80.40;;;;;;6181558;22;20026;-92
2023/04/23 00:14:59;;;;;;;253.63;74.07;;;6.00;80.60;;;;;;6223470;22;19915;-90
2023/04/23 00:17:25;;;;;;;333.43;84.83;;;6.00;80.60;;;;;;6198343;22;20103;-90
2023/04/23 00:19:54;;;;;;;283.90;77.63;;;5.90;80.60;;;;;;6221642;22;20108;-90
2023/04/23 00:22:20;;;;;;;243.27;74.73;;;6.00;80.50;;;;;;6206126;22;20058;-90
2023/04/23 00:24:49;;;;;;;334.03;85.30;;;5.90;80.70;;;;;;6196506;22;20011;-90
2023/04/23 00:27:19;;;;;;;1125.50;149.23;;;6.00;80.70;;;;;;6213495;22;20019;-91
2023/04/23 00:29:45;;;;;;;1230.37;155.83;;;6.00;80.90;;;;;;6223340;22;20086;-89
2023/04/23 00:32:13;;;;;;;1524.70;169.67;;;6.00;80.90;;;;;;6196135;22;20381;-90
2023/04/23 00:34:41;;;;;;;1489.27;170.73;;;6.00;80.80;;;;;;6198101;22;20019;-90
2023/04/23 00:37:07;;;;;;;1231.87;135.73;;;6.00;80.70;;;;;;6264101;22;20020;-90
2023/04/23 00:39:37;;;;;;;1200.70;139.87;;;5.90;80.80;;;;;;6251375;22;20019;-90
2023/04/23 00:42:10;;;;;;;1062.03;124.57;;;5.90;80.70;;;;;;6243945;22;20042;-89
2023/04/23 00:44:36;;;;;;;1097.97;125.60;;;5.80;80.70;;;;;;6228071;22;20085;-90
2023/04/23 00:47:02;;;;;;;1094.17;132.87;;;5.80;80.70;;;;;;6246687;22;20012;-89
2023/04/23 00:49:28;;;;;;;1356.87;181.23;;;5.70;80.70;;;;;;6250658;22;20023;-89
2023/04/23 00:51:57;;;;;;;1251.50;173.80;;;5.70;80.70;;;;;;6228401;22;20030;-92
2023/04/23 00:54:23;;;;;;;898.53;122.43;;;5.70;80.70;;;;;;6250592;22;20448;-90
2023/04/23 00:56:52;;;;;;;1070.93;150.43;;;5.70;80.80;;;;;;6271943;22;20078;-91
2023/04/23 00:59:21;;;;;;;1275.77;186.87;;;5.70;80.90;;;;;;6226051;22;20030;-90
2023/04/23 01:01:49;;;;;;;1089.67;159.33;;;5.70;80.90;;;;;;6252344;22;20588;-90
2023/04/23 01:04:17;;;;;;;1207.03;173.77;;;5.70;80.90;;;;;;6250912;22;20647;-91
2023/04/23 01:06:46;;;;;;;1208.23;160.43;;;5.70;81.00;;;;;;6272154;22;20722;-92
2023/04/23 01:09:12;;;;;;;1673.73;227.53;;;5.80;81.10;;;;;;6235555;22;20141;-89
2023/04/23 01:11:41;;;;;;;1295.93;174.00;;;5.80;81.10;;;;;;6226448;22;20011;-92
2023/04/23 01:14:08;;;;;;;1346.03;174.77;;;5.80;81.10;;;;;;6276490;22;20449;-89
2023/04/23 01:16:37;;;;;;;1101.97;159.53;;;5.80;81.10;;;;;;6273443;22;20026;-92
2023/04/23 01:19:08;;;;;;;1097.10;169.43;;;5.80;81.20;;;;;;6249988;22;20019;-90
2023/04/23 01:21:35;;;;;;;788.33;122.93;;;5.80;81.20;;;;;;6251802;22;20019;-91
2023/04/23 01:24:05;;;;;;;1138.60;178.33;;;5.90;81.20;;;;;;6224432;22;20345;-90
2023/04/23 01:26:39;;;;;;;740.27;131.33;;;5.90;81.20;;;;;;6223229;22;20203;-91
2023/04/23 01:29:05;;;;;;;956.63;156.90;;;5.90;81.10;;;;;;6250424;22;20019;-90
2023/04/23 01:31:31;;;;;;;943.03;156.00;;;5.90;81.20;;;;;;6254221;22;20026;-90
2023/04/23 01:33:59;;;;;;;787.20;130.13;;;5.90;81.10;;;;;;6251965;22;20023;-90
2023/04/23 01:36:28;;;;;;;894.77;148.97;;;5.90;81.10;;;;;;6276593;22;20085;-91
2023/04/23 01:38:54;;;;;;;1368.17;208.30;;;5.90;81.10;;;;;;6251056;22;20060;-90
2023/04/23 01:41:23;;;;;;;852.20;140.00;;;5.90;81.10;;;;;;6253728;22;20019;-90
2023/04/23 01:43:52;;;;;;;876.73;153.30;;;5.90;81.10;;;;;;6261222;22;20150;-91
2023/04/23 01:46:21;;;;;;;532.73;119.93;;;5.90;81.10;;;;;;6278717;22;20047;-92
2023/04/23 01:48:46;;;;;;;418.17;105.77;;;5.80;81.00;;;;;;6273955;22;20016;-90
2023/04/23 01:51:15;;;;;;;400.30;102.33;;;5.80;81.10;;;;;;6253512;22;20076;-89
2023/04/23 01:53:44;;;;;;;291.57;89.30;;;5.80;81.10;;;;;;6277967;22;20392;-90
2023/04/23 01:56:10;;;;;;;285.67;90.47;;;5.80;81.00;;;;;;6279642;22;20015;-92
2023/04/23 01:58:38;;;;;;;225.77;81.30;;;5.80;81.00;;;;;;6246788;22;20050;-91
2023/04/23 02:01:07;;;;;;;220.07;81.43;;;5.80;81.00;;;;;;6228523;22;20015;-89
2023/04/23 02:03:33;;;;;;;221.20;82.53;;;5.80;81.00;;;;;;6263843;22;20019;-90
2023/04/23 02:06:03;;;;;;;220.87;82.67;;;5.80;81.10;;;;;;6254391;22;20050;-91
2023/04/23 02:08:29;;;;;;;243.53;86.90;;;5.80;81.10;;;;;;6205385;22;20132;-91
2023/04/23 02:10:58;;;;;;;224.57;85.43;;;5.80;81.00;;;;;;6253707;22;20068;-90
2023/04/23 02:13:26;;;;;;;246.00;89.13;;;5.80;81.10;;;;;;6251405;22;20019;-89
2023/04/23 02:15:54;;;;;;;241.67;87.03;;;5.80;81.00;;;;;;6253395;22;20019;-90
2023/04/23 02:18:22;;;;;;;265.47;89.63;;;5.80;81.00;;;;;;6219293;22;20054;-88
2023/04/23 02:20:48;;;;;;;225.90;86.63;;;5.80;80.90;;;;;;6279096;22;20011;-89
2023/04/23 02:23:16;;;;;;;242.77;90.67;;;5.70;80.90;;;;;;6276779;22;20019;-91
2023/04/23 02:25:45;;;;;;;270.97;95.70;;;5.70;80.90;;;;;;6253864;22;20015;-90
2023/04/23 02:28:13;;;;;;;263.20;97.33;;;5.70;81.00;;;;;;6246240;22;20069;-91
2023/04/23 02:30:44;;;;;;;236.93;89.43;;;5.70;81.10;;;;;;6253844;22;20153;-91
2023/04/23 02:33:11;;;;;;;298.33;101.45;;;5.70;81.00;;;;;;6209697;22;20030;-90
2023/04/23 02:35:37;;;;;;;259.20;96.50;;;5.70;81.00;;;;;;6253038;22;20047;-90
2023/04/23 02:38:04;;;;;;;338.27;107.60;;;5.70;81.00;;;;;;6220598;22;20016;-89
2023/04/23 02:40:33;;;;;;;282.27;101.90;;;5.70;81.10;;;;;;6254212;22;20029;-90
2023/04/23 02:43:01;;;;;;;330.33;106.50;;;5.70;81.00;;;;;;6252273;22;20050;-91
2023/04/23 02:45:30;;;;;;;326.80;106.00;;;5.80;81.00;;;;;;6253498;22;20517;-91
2023/04/23 02:47:56;;;;;;;326.57;105.93;;;5.70;80.90;;;;;;6272227;22;20064;-90
2023/04/23 02:50:25;;;;;;;273.33;101.23;;;5.70;80.90;;;;;;6278926;22;20339;-91
2023/04/23 02:52:54;;;;;;;298.47;106.60;;;5.70;81.00;;;;;;6227691;22;20026;-90
2023/04/23 02:55:19;;;;;;;321.47;108.87;;;5.70;80.90;;;;;;6253891;22;20015;-89
2023/04/23 02:57:45;;;;;;;348.67;109.67;;;5.70;81.00;;;;;;6246593;22;20061;-90
2023/04/23 03:00:13;;;;;;;337.63;111.90;;;5.70;81.00;;;;;;6253626;22;20018;-90
2023/04/23 03:02:39;;;;;;;346.77;113.57;;;5.70;80.90;;;;;;6239685;22;20070;-90
2023/04/23 03:05:06;;;;;;;364.07;112.67;;;5.70;80.90;;;;;;6229604;22;20015;-90
2023/04/23 03:07:32;;;;;;;317.33;105.83;;;5.60;81.00;;;;;;6254765;22;20015;-90
2023/04/23 03:09:58;;;;;;;507.10;140.43;;;5.70;81.00;;;;;;6253576;22;20050;-90
2023/04/23 03:12:23;;;;;;;470.27;134.30;;;5.70;81.30;;;;;;6275009;22;20437;-90
2023/04/23 03:14:51;;;;;;;594.40;150.10;;;5.70;81.40;;;;;;6253466;22;20019;-91
2023/04/23 03:17:20;;;;;;;775.50;178.47;;;5.70;81.50;;;;;;6246798;22;20027;-90
2023/04/23 03:19:48;;;;;;;1040.13;210.37;;;5.70;81.60;;;;;;6227948;22;20023;-89
2023/04/23 03:22:17;;;;;;;1145.60;224.80;;;5.80;81.70;;;;;;6235621;22;20019;-90
2023/04/23 03:24:43;;;;;;;1298.70;247.90;;;5.80;81.80;;;;;;6226565;22;20018;-91
2023/04/23 03:27:11;;;;;;;1386.00;246.67;;;5.90;82.00;;;;;;6220673;22;20203;-90
2023/04/23 03:29:40;;;;;;;1457.80;250.87;;;5.90;82.20;;;;;;6253608;22;20022;-90
2023/04/23 03:32:06;;;;;;;1257.57;229.43;;;5.90;82.10;;;;;;6236033;22;20015;-90
2023/04/23 03:34:34;;;;;;;1359.67;254.10;;;5.90;82.10;;;;;;6226488;22;20023;-92
2023/04/23 03:37:05;;;;;;;1277.77;236.27;;;5.90;82.00;;;;;;6271813;22;20108;-89
2023/04/23 03:39:31;;;;;;;1049.40;183.95;;;5.90;82.10;;;;;;6253060;22;20393;-89
2023/04/23 03:42:00;;;;;;;1346.97;241.13;;;5.90;82.20;;;;;;6252982;22;20019;-92
2023/04/23 03:44:26;;;;;;;1189.73;216.50;;;5.90;82.10;;;;;;6280115;22;20015;-93
2023/04/23 03:46:57;;;;;;;1717.07;284.17;;;5.90;82.10;;;;;;6248202;22;20026;-92
2023/04/23 03:49:25;;;;;;;1407.15;255.57;;;5.90;82.10;;;;;;6228579;22;20019;-89
2023/04/23 03:51:51;;;;;;;1540.83;272.83;;;5.90;82.10;;;;;;6254907;22;20022;-92
2023/04/23 03:54:22;;;;;;;1394.03;256.77;;;5.90;82.00;;;;;;6234652;22;20015;-89
2023/04/23 03:56:47;;;;;;;1520.53;271.25;;;5.90;82.00;;;;;;6271382;22;20146;-90
2023/04/23 03:59:13;;;;;;;1405.40;254.07;;;5.90;82.00;;;;;;6233995;22;20066;-87
2023/04/23 04:01:42;;;;;;;1610.63;287.87;;;5.90;82.10;;;;;;6253086;22;20061;-89
2023/04/23 04:04:10;;;;;;;1299.83;251.47;;;5.90;82.00;;;;;;6264379;22;20022;-89
2023/04/23 04:06:39;;;;;;;1229.37;245.10;;;5.90;82.00;;;;;;6248412;22;20024;-94
2023/04/23 04:09:06;;;;;;;914.87;201.27;;;6.00;82.20;;;;;;6249816;22;20043;-90
2023/04/23 04:11:35;;;;;;;1191.33;244.40;;;6.00;82.10;;;;;;6251805;22;20057;-89
2023/04/23 04:14:01;;;;;;;1335.97;273.07;;;6.00;82.20;;;;;;6225509;22;20061;-89
2023/04/23 04:16:29;;;;;;;1165.47;240.13;;;6.00;82.10;;;;;;6274822;22;20015;-91
2023/04/23 04:18:58;;;;;;;1177.33;239.97;;;6.10;82.10;;;;;;6272589;22;20090;-89
2023/04/23 04:21:27;;;;;;;1100.80;235.50;;;6.10;82.10;;;;;;6252579;22;20023;-90
2023/04/23 04:23:53;;;;;;;1031.03;232.40;;;6.10;82.10;;;;;;6276257;22;20473;-89
2023/04/23 04:26:19;;;;;;;1038.43;234.23;;;6.10;82.10;;;;;;6277279;22;20019;-91
2023/04/23 04:28:45;;;;;;;778.67;201.73;;;6.10;82.10;;;;;;6248012;22;20023;-90
2023/04/23 04:31:13;;;;;;;975.37;230.43;;;6.10;82.10;;;;;;6227176;22;20020;-89
2023/04/23 04:33:39;;;;;;;758.57;191.53;;;6.10;82.10;;;;;;6249682;22;20309;-90
2023/04/23 04:36:07;;;;;;;1114.90;245.37;;;6.20;82.10;;;;;;6251595;22;20049;-90
2023/04/23 04:38:33;;;;;;;1045.80;240.63;;;6.20;82.10;;;;;;6247837;22;20019;-89
2023/04/23 04:41:00;;;;;;;1145.20;248.33;;;6.20;82.00;;;;;;6277638;22;20015;-90
2023/04/23 04:43:26;;;;;;;955.17;227.90;;;6.20;82.10;;;;;;6225819;22;20031;-90
2023/04/23 04:45:52;;;;;;;1023.60;235.17;;;6.20;82.10;;;;;;6253335;22;20016;-89
2023/04/23 04:48:21;;;;;;;697.60;184.53;;;6.30;82.10;;;;;;6268315;22;20106;-90
2023/04/23 04:50:49;;;;;;;1098.83;247.20;;;6.30;82.00;;;;;;6226731;22;20019;-90
2023/04/23 04:53:15;;;;;;;828.23;202.50;;;6.30;82.00;;;;;;6224831;22;20050;-89
2023/04/23 04:55:44;;;;;;;1103.27;248.43;;;6.30;82.10;;;;;;6227137;22;20015;-90
2023/04/23 04:58:13;;;;;;;906.47;218.03;;;6.30;82.10;;;;;;6244953;22;20350;-90
2023/04/23 05:00:50;;;;;;;944.57;219.53;;;6.30;82.10;;;;;;6251923;22;20047;-90
2023/04/23 05:03:17;;;;;;;989.77;233.90;;;6.40;82.10;;;;;;6237788;22;20019;-90
2023/04/23 05:05:47;;;;;;;1033.10;243.57;;;6.40;82.10;;;;;;6245772;22;20023;-90
2023/04/23 05:08:17;;;;;;;870.33;221.77;;;6.40;82.20;;;;;;6238764;22;20023;-89
2023/04/23 05:10:43;;;;;;;797.83;214.97;;;6.40;82.20;;;;;;6254852;22;20349;-90
2023/04/23 05:13:09;;;;;;;836.37;214.23;;;6.40;82.20;;;;;;6251613;22;20020;-90
2023/04/23 05:15:35;;;;;;;819.10;223.43;;;6.50;82.20;;;;;;6279305;22;20081;-92
2023/04/23 05:18:05;;;;;;;703.30;202.70;;;6.50;82.20;;;;;;6245870;22;20041;-91
2023/04/23 05:20:31;;;;;;;703.03;203.47;;;6.50;82.20;;;;;;6253607;22;20451;-90
2023/04/23 05:23:01;;;;;;;610.47;183.93;;;6.60;82.20;;;;;;6277733;22;20018;-88
2023/04/23 05:25:30;;;;;;;527.23;173.33;;;6.60;82.20;;;;;;6255563;22;20062;-90
2023/04/23 05:27:56;;;;;;;611.60;187.93;;;6.60;82.30;;;;;;6206841;22;20081;-90
2023/04/23 05:30:26;;;;;;;520.67;170.40;;;6.70;82.20;;;;;;6254735;22;20025;-91
2023/04/23 05:32:52;;;;;;;522.57;170.07;;;6.70;82.20;;;;;;6252011;22;20035;-90
2023/04/23 05:35:18;;;;;;;494.27;159.97;;;6.70;82.10;;;;;;6254605;22;20555;-90
2023/04/23 05:37:44;;;;;;;452.17;151.77;;;6.70;82.10;;;;;;6218283;22;20023;-90
2023/04/23 05:40:10;;;;;;;485.37;156.87;;;6.70;82.10;;;;;;6224136;22;20030;-90
2023/04/23 05:42:36;;;;;;;428.87;147.70;;;6.80;82.10;;;;;;6222146;22;20019;-90
2023/04/23 05:45:03;;;;;;;427.10;144.00;;;6.80;82.00;;;;;;6200124;22;20016;-89
2023/04/23 05:47:32;;;;;;;416.43;144.23;;;6.80;81.90;;;;;;6216895;22;20086;-91
2023/04/23 05:49:58;;;;;;;389.90;137.40;;;6.80;81.90;;;;;;6223948;22;20023;-89
2023/04/23 05:52:26;;;;;;;443.17;142.23;;;6.80;81.90;;;;;;6182251;22;20079;-90
2023/04/23 05:54:52;;;;;;;406.63;138.80;;;6.80;81.80;;;;;;6224911;22;20016;-90
2023/04/23 05:57:18;;;;;;;427.60;140.80;;;6.80;81.80;;;;;;6239621;22;20510;-89
2023/04/23 05:59:44;;;;;;;389.67;136.30;;;6.80;81.90;;;;;;6223064;22;20418;-90
2023/04/23 06:02:10;;;;;;;380.33;131.50;;;6.80;81.90;;;;;;6232291;22;20438;-89
2023/04/23 06:04:36;;;;;;;375.87;132.37;;;6.80;81.90;;;;;;6224440;22;20022;-89
2023/04/23 06:07:03;;;;;;;378.53;131.93;;;6.80;81.90;;;;;;6217246;22;20011;-88
2023/04/23 06:09:29;;;;;;;350.13;129.07;;;6.90;81.90;;;;;;6222913;22;20012;-90
2023/04/23 06:12:02;;;;;;;352.13;130.37;;;6.90;82.00;;;;;;6223488;22;20027;-90
2023/04/23 06:14:27;;;;;;;319.67;123.07;;;7.00;82.10;;;;;;6223844;22;20020;-89
2023/04/23 06:16:53;;;;;;;324.63;126.60;;;7.00;81.90;;;;;;6195071;22;20074;-93
2023/04/23 06:19:26;;;;;;;310.30;124.20;;;7.00;81.90;;;;;;6177042;22;20028;-91
2023/04/23 06:21:54;;;;;;;323.60;126.77;;;7.10;82.00;;;;;;6225939;22;20020;-93
2023/04/23 06:24:20;;;;;;;304.33;122.30;;;7.20;82.00;;;;;;6220090;22;20024;-89
2023/04/23 06:26:45;;;;;;;273.90;116.77;;;7.20;82.00;;;;;;6243459;22;20018;-91
2023/04/23 06:29:16;;;;;;;270.50;119.27;;;7.40;82.10;;;;;;6206362;22;20027;-89
2023/04/23 06:31:42;;;;;;;219.57;92.32;;;7.50;82.10;;;;;;6223370;22;20016;-89
2023/04/23 06:34:08;;;;;;;257.57;115.47;;;7.60;82.00;;;;;;6221181;22;20016;-88
2023/04/23 06:36:37;;;;;;;230.00;110.00;;;7.60;81.90;;;;;;6219030;22;20016;-92
2023/04/23 06:39:05;;;;;;;238.77;112.43;;;7.70;81.80;;;;;;6235915;22;20667;-88
2023/04/23 06:41:34;;;;;;;200.47;103.43;;;7.80;81.70;;;;;;6248138;22;20020;-91
2023/04/23 06:44:00;;;;;;;203.23;103.70;;;7.80;81.40;;;;;;6171938;22;20012;-90
2023/04/23 06:46:28;;;;;;;213.57;104.20;;;7.80;81.50;;;;;;6220517;22;20012;-92
2023/04/23 06:48:57;;;;;;;197.73;101.37;;;7.80;81.60;;;;;;6218145;22;20027;-90
2023/04/23 06:51:26;;;;;;;182.47;97.23;;;8.00;81.70;;;;;;6198476;22;20102;-89
2023/04/23 06:53:53;;;;;;;211.60;107.30;;;8.10;81.70;;;;;;6205419;22;20065;-89
2023/04/23 06:56:25;;;;;;;178.23;95.97;;;8.30;81.80;;;;;;6222163;22;20160;-91
2023/04/23 06:58:51;;;;;;;178.77;96.47;;;8.50;81.80;;;;;;6195544;22;20027;-89
2023/04/23 07:01:17;;;;;;;167.77;93.57;;;8.60;81.30;;;;;;6223796;22;20020;-90
2023/04/23 07:03:47;;;;;;;162.43;93.77;;;8.80;81.20;;;;;;6219911;22;20018;-91
2023/04/23 07:06:17;;;;;;;156.83;90.13;;;8.90;81.10;;;;;;6174963;22;20170;-90
2023/04/23 07:08:44;;;;;;;132.00;81.37;;;9.10;81.10;;;;;;6243356;22;20460;-89
2023/04/23 07:11:11;;;;;;;131.30;80.67;;;9.20;80.10;;;;;;6222328;22;20828;-89
2023/04/23 07:13:41;;;;;;;122.50;77.50;;;9.30;80.10;;;;;;6220536;22;20494;-94
2023/04/23 07:16:09;;;;;;;118.10;74.70;;;9.40;80.10;;;;;;6223017;22;20024;-93
2023/04/23 07:18:35;;;;;;;111.60;71.77;;;9.50;79.40;;;;;;6201153;22;20289;-90
2023/04/23 07:21:01;;;;;;;113.80;72.80;;;9.60;79.60;;;;;;6223497;22;20020;-91
2023/04/23 07:23:27;;;;;;;113.00;73.73;;;9.70;79.70;;;;;;6181629;22;20015;-89
2023/04/23 07:25:53;;;;;;;105.83;67.93;;;9.80;79.30;;;;;;6248635;22;20058;-90
2023/04/23 07:28:19;;;;;;;110.60;69.87;;;9.90;79.10;;;;;;6175082;22;20035;-89
2023/04/23 07:30:45;;;;;;;101.57;65.07;;;10.00;79.00;;;;;;6221729;22;20015;-92
2023/04/23 07:33:11;;;;;;;103.23;67.00;;;10.00;79.40;;;;;;6220037;22;20069;-90
2023/04/23 07:35:37;;;;;;;98.50;64.57;;;10.10;79.30;;;;;;6172213;22;20016;-91
2023/04/23 07:38:03;;;;;;;98.07;63.37;;;10.10;78.60;;;;;;6227563;22;20103;-93
2023/04/23 07:40:29;;;;;;;94.97;63.73;;;10.00;78.50;;;;;;6253738;22;20084;-90
2023/04/23 07:42:58;;;;;;;100.40;66.43;;;10.00;78.60;;;;;;6208634;22;20027;-89
2023/04/23 07:45:26;;;;;;;89.80;61.87;;;10.10;79.00;;;;;;6265478;22;20011;-91
2023/04/23 07:47:57;;;;;;;99.37;66.30;;;10.30;79.00;;;;;;6242918;22;20433;-91
2023/04/23 07:50:23;;;;;;;79.85;50.88;;;10.40;78.70;;;;;;6279219;22;20072;-94
2023/04/23 07:52:49;;;;;;;91.23;61.50;;;10.60;78.20;;;;;;6231997;22;20019;-90
2023/04/23 07:55:20;;;;;;;89.53;60.23;;;10.70;78.10;;;;;;6253383;22;20027;-90
2023/04/23 07:57:46;;;;;;;86.85;58.60;;;10.70;78.00;;;;;;6233947;22;20015;-91
2023/04/23 08:00:13;;;;;;;80.63;54.67;;;10.80;77.50;;;;;;6254242;22;20041;-89
2023/04/23 08:02:48;;;;;;;82.40;56.20;;;10.90;77.60;;;;;;6237970;22;20015;-90
2023/04/23 08:05:16;;;;;;;81.53;56.13;;;11.10;77.70;;;;;;6253709;22;20444;-96
2023/04/23 08:07:42;;;;;;;77.83;55.17;;;11.10;77.50;;;;;;6195926;22;20008;-91
2023/04/23 08:10:08;;;;;;;77.90;53.77;;;11.30;77.50;;;;;;6252644;22;20118;-89
2023/04/23 08:12:34;;;;;;;78.27;53.40;;;11.40;77.30;;;;;;6250498;22;20031;-91
2023/04/23 08:15:03;;;;;;;72.67;51.13;;;11.50;77.30;;;;;;6228072;22;20011;-89
2023/04/23 08:17:29;;;;;;;62.97;46.17;;;11.50;76.90;;;;;;6189559;22;20036;-89
2023/04/23 08:19:58;;;;;;;60.63;46.30;;;11.50;76.80;;;;;;6226539;22;20260;-91
2023/04/23 08:22:26;;;;;;;67.53;48.20;;;11.60;76.60;;;;;;6236567;22;20068;-88
2023/04/23 08:24:52;;;;;;;63.63;48.10;;;11.70;76.50;;;;;;6249667;22;20018;-90
2023/04/23 08:27:29;;;;;;;56.65;42.92;;;11.70;76.60;;;;;;6269643;22;20015;-90
2023/04/23 08:29:55;;;;;;;54.08;42.65;;;11.90;76.30;;;;;;6227267;22;20023;-89
2023/04/23 08:32:21;;;;;;;52.25;38.85;;;12.30;76.10;;;;;;6249184;22;20015;-89
2023/04/23 08:34:49;;;;;;;54.63;41.35;;;12.50;75.00;;;;;;6251782;22;20016;-90
2023/04/23 08:37:17;;;;;;;54.60;40.38;;;12.50;74.70;;;;;;6270637;22;20710;-90
2023/04/23 08:39:43;;;;;;;49.60;38.83;;;12.50;75.10;;;;;;6250400;22;20514;-89
2023/04/23 08:42:17;;;;;;;49.58;39.38;;;12.50;75.00;;;;;;6225441;22;20019;-89
2023/04/23 08:44:46;;;;;;;51.10;39.17;;;12.70;75.30;;;;;;6279978;22;20325;-90
2023/04/23 08:47:16;;;;;;;50.42;38.28;;;12.80;74.60;;;;;;6230844;22;20050;-89
2023/04/23 08:49:44;;;;;;;50.33;36.93;;;13.10;75.00;;;;;;6279328;22;20011;-91
2023/04/23 08:52:33;;;;;;;46.53;36.15;;;13.20;74.70;;;;;;6226277;22;20042;-89
2023/04/23 08:55:00;;;;;;;47.45;36.80;;;13.50;73.70;;;;;;6253773;22;20023;-91
2023/04/23 08:57:27;;;;;;;44.10;33.30;;;13.70;74.30;;;;;;6230574;22;20027;-92
2023/04/23 08:59:56;;;;;;;44.50;33.53;;;14.10;73.80;;;;;;6253006;22;20102;-91
2023/04/23 09:02:22;;;;;;;42.17;34.75;;;14.10;72.80;;;;;;6225227;22;20412;-88
2023/04/23 09:04:53;;;;;;;39.60;32.38;;;14.40;72.70;;;;;;6252906;22;20055;-89
2023/04/23 09:07:19;;;;;;;31.63;24.10;;;14.80;72.30;;;;;;6270931;22;20015;-90
2023/04/23 09:09:45;;;;;;;38.35;30.45;;;14.80;71.50;;;;;;6227666;22;20095;-89
2023/04/23 09:12:14;;;;;;;39.78;30.73;;;15.00;72.10;;;;;;6276093;22;20016;-89
2023/04/23 09:14:43;;;;;;;36.65;27.25;;;14.90;71.40;;;;;;6278594;22;20750;-90
2023/04/23 09:17:09;;;;;;;37.60;28.90;;;14.80;71.50;;;;;;6205294;22;20019;-90
2023/04/23 09:19:40;;;;;;;39.58;28.17;;;14.70;71.50;;;;;;6250974;22;20023;-90
2023/04/23 09:22:09;;;;;;;32.90;25.77;;;14.50;71.60;;;;;;6261717;22;20077;-89
2023/04/23 09:24:35;;;;;;;35.92;27.42;;;14.30;71.70;;;;;;6252606;22;20011;-89
2023/04/23 09:27:02;;;;;;;31.10;23.27;;;14.30;72.00;;;;;;6246931;22;20038;-89
2023/04/23 09:29:34;;;;;;;30.95;23.48;;;14.30;71.60;;;;;;6250228;22;20023;-89
2023/04/23 09:32:08;;;;;;;33.15;23.92;;;14.60;71.10;;;;;;6277866;22;20026;-89
2023/04/23 09:34:45;;;;;;;32.63;24.23;;;14.90;71.20;;;;;;6250360;22;20019;-89
2023/04/23 09:37:17;;;;;;;33.55;24.08;;;14.90;71.00;;;;;;6244895;22;20019;-92
2023/04/23 09:39:44;;;;;;;33.13;24.75;;;14.70;70.00;;;;;;6251802;22;20023;-89
2023/04/23 09:42:12;;;;;;;26.48;19.88;;;14.50;71.00;;;;;;6250193;22;20015;-89
2023/04/23 09:44:38;;;;;;;26.30;19.35;;;14.30;71.00;;;;;;6278609;22;20047;-90
2023/04/23 09:47:13;;;;;;;24.08;18.30;;;14.20;71.20;;;;;;6235244;22;20452;-88
2023/04/23 09:49:47;;;;;;;22.10;18.30;;;14.10;70.80;;;;;;6302973;22;20033;-91
2023/04/23 09:52:13;;;;;;;25.15;17.35;;;14.20;70.70;;;;;;6250403;22;20020;-88
2023/04/23 09:54:39;;;;;;;26.00;17.77;;;14.20;71.10;;;;;;6227234;22;20015;-89
2023/04/23 09:57:07;;;;;;;25.20;18.17;;;14.40;71.00;;;;;;6219378;22;20068;-88
2023/04/23 09:59:37;;;;;;;20.92;16.27;;;14.50;70.30;;;;;;6277086;22;20019;-89
2023/04/23 10:02:09;;;;;;;19.45;14.23;;;14.50;70.70;;;;;;6246837;22;20051;-91
2023/04/23 10:04:50;;;;;;;24.90;15.73;;;14.70;70.40;;;;;;6237252;22;20015;-88
2023/04/23 10:07:17;;;;;;;23.98;14.93;;;15.00;69.60;;;;;;6244201;22;20392;-91
2023/04/23 10:09:43;;;;;;;18.75;13.93;;;15.00;69.80;;;;;;6251666;22;20031;-88
2023/04/23 10:12:10;;;;;;;23.88;16.15;;;15.20;69.70;;;;;;6250557;22;20011;-89
2023/04/23 10:14:45;;;;;;;20.08;14.35;;;15.40;69.40;;;;;;6226552;22;20015;-89
2023/04/23 10:17:11;;;;;;;23.27;16.23;;;15.60;69.50;;;;;;6242291;22;20023;-89
2023/04/23 10:19:41;;;;;;;19.90;15.23;;;15.80;69.50;;;;;;6226310;22;20023;-89
2023/04/23 10:22:10;;;;;;;19.75;14.05;;;15.90;68.80;;;;;;6250413;22;20068;-91
2023/04/23 10:24:41;;;;;;;19.48;13.82;;;15.90;68.70;;;;;;6251399;22;20437;-90
2023/04/23 10:27:11;;;;;;;20.60;13.20;;;15.80;68.60;;;;;;6240351;22;20103;-89
2023/04/23 10:29:37;;;;;;;16.50;11.20;;;15.80;68.40;;;;;;6276650;22;20022;-89
2023/04/23 10:32:10;;;;;;;18.40;10.10;;;15.60;68.10;;;;;;6249230;22;20034;-87
2023/04/23 10:34:35;;;;;;;14.15;9.20;;;15.50;68.70;;;;;;6250180;22;20015;-89
2023/04/23 10:37:03;;;;;;;18.95;8.65;;;15.20;68.00;;;;;;6240230;22;20660;-88
2023/04/23 10:39:33;;;;;;;16.42;8.00;;;15.00;68.30;;;;;;6170928;22;20099;-88
2023/04/23 10:42:03;;;;;;;15.18;8.48;;;15.00;68.10;;;;;;6246334;22;20016;-88
2023/04/23 10:44:42;;;;;;;18.55;9.38;;;15.00;68.80;;;;;;6193691;22;20019;-91
2023/04/23 10:47:13;;;;;;;14.52;7.93;;;15.10;68.70;;;;;;6217294;22;20012;-87
2023/04/23 10:49:39;;;;;;;14.23;8.40;;;15.00;68.80;;;;;;6219720;22;20016;-89
2023/04/23 10:52:15;;;;;;;13.70;7.70;;;15.00;68.60;;;;;;6178799;22;20370;-90
2023/04/23 10:55:01;;;;;;;12.45;8.32;;;15.00;68.60;;;;;;6220369;22;20015;-89
2023/04/23 10:57:27;;;;;;;16.83;8.10;;;15.20;69.40;;;;;;6185158;22;20501;-89
2023/04/23 10:59:55;;;;;;;14.70;8.50;;;15.30;68.70;;;;;;6220381;22;20047;-88
2023/04/23 11:02:23;;;;;;;10.73;6.70;;;15.40;68.70;;;;;;6218337;22;20016;-88
2023/04/23 11:04:56;;;;;;;11.43;6.30;;;15.40;68.20;;;;;;6219525;22;20019;-89
2023/04/23 11:07:32;;;;;;;12.43;5.68;;;15.40;67.90;;;;;;6198049;22;20325;-88
2023/04/23 11:10:09;;;;;;;13.75;5.68;;;15.30;68.00;;;;;;6220275;22;20437;-89
2023/04/23 11:12:37;;;;;;;15.05;5.53;;;15.40;68.30;;;;;;6204355;22;20012;-90
2023/04/23 11:15:20;;;;;;;14.43;6.63;;;15.70;67.90;;;;;;6220694;22;20023;-89
2023/04/23 11:17:47;;;;;;;11.98;5.45;;;16.00;67.90;;;;;;6202049;22;20019;-90
2023/04/23 11:20:19;;;;;;;10.23;4.03;;;16.10;67.40;;;;;;6220333;22;20023;-90
2023/04/23 11:22:45;;;;;;;7.80;3.78;;;16.20;65.00;;;;;;6205863;22;20012;-87
2023/04/23 11:25:19;;;;;;;12.88;3.97;;;16.50;65.60;;;;;;6220513;22;20015;-88
2023/04/23 11:27:49;;;;;;;14.77;4.80;;;16.60;64.90;;;;;;6238034;22;20465;-93
2023/04/23 11:30:33;;;;;;;13.98;4.30;;;16.70;65.30;;;;;;6220432;22;20046;-88
2023/04/23 11:33:00;;;;;;;9.10;3.75;;;16.80;64.10;;;;;;6217980;22;20069;-89
2023/04/23 11:35:38;;;;;;;8.70;3.45;;;16.70;64.50;;;;;;6219613;22;20175;-90
2023/04/23 11:38:12;;;;;;;10.60;3.10;;;16.70;64.50;;;;;;6185769;22;20053;-90
2023/04/23 11:40:39;;;;;;;9.23;2.65;;;16.60;63.30;;;;;;6250602;22;20713;-89
2023/04/23 11:43:32;;;;;;;9.30;2.80;;;16.50;63.20;;;;;;6261462;22;20102;-88
2023/04/23 11:46:02;;;;;;;7.70;2.90;;;16.50;62.90;;;;;;6249613;22;20130;-90
2023/04/23 11:48:28;;;;;;;11.00;3.20;;;16.60;63.30;;;;;;6241537;22;20015;-89
2023/04/23 11:50:54;;;;;;;9.00;2.78;;;16.80;62.50;;;;;;6249736;22;20525;-87
2023/04/23 11:53:22;;;;;;;8.10;2.88;;;17.00;63.30;;;;;;6273186;22;20500;-87
2023/04/23 11:55:48;;;;;;;8.35;2.60;;;16.90;61.80;;;;;;6250387;22;20635;-89
2023/04/23 11:58:24;;;;;;;10.07;2.47;;;16.90;62.70;;;;;;6267968;22;20034;-89
2023/04/23 12:00:58;;;;;;;12.18;2.58;;;17.00;62.20;;;;;;6248835;22;20314;-88
2023/04/23 12:03:26;;;;;;;8.95;2.72;;;17.00;61.30;;;;;;6259479;22;20169;-88
2023/04/23 12:05:51;;;;;;;6.10;2.40;;;17.10;62.30;;;;;;6249681;22;20015;-89
2023/04/23 12:08:19;;;;;;;6.90;1.98;;;17.10;61.90;;;;;;6241108;22;20019;-89
2023/04/23 12:10:55;;;;;;;9.18;2.33;;;17.00;61.50;;;;;;6249247;22;20081;-89
2023/04/23 12:13:22;;;;;;;11.10;2.47;;;17.00;60.70;;;;;;6229434;22;20441;-87
2023/04/23 12:16:11;;;;;;;5.88;2.30;;;17.10;61.00;;;;;;6256633;22;20011;-89
2023/04/23 12:18:43;;;;;;;7.82;2.03;;;17.20;60.90;;;;;;6229895;22;20023;-88
2023/04/23 12:21:10;;;;;;;;;;;17.30;61.20;;;;;;6248846;22;20372;-89
2023/04/23 12:23:49;;;;;;;6.53;2.20;;;17.20;59.20;;;;;;6244578;22;19918;-89
2023/04/23 12:26:20;;;;;;;8.68;2.10;;;17.40;61.10;;;;;;6243831;22;20015;-89
2023/04/23 12:28:53;;;;;;;7.78;2.00;;;17.50;60.90;;;;;;6243472;22;20026;-89